createdAt,value
2023-05-03T00:01:31.580Z,83.18
2023-05-03T00:03:57.947Z,83.88
2023-05-03T00:06:24.366Z,83.40
2023-05-03T00:08:51.105Z,83.54
2023-05-03T00:11:17.485Z,84.30
2023-05-03T00:13:43.854Z,84.90
2023-05-03T00:16:10.242Z,85.13
2023-05-03T00:18:36.713Z,84.67
2023-05-03T00:21:03.399Z,85.46
2023-05-03T00:23:30.026Z,85.81
2023-05-03T00:25:57.875Z,85.70
2023-05-03T00:28:25.414Z,86.13
2023-05-03T00:30:52.478Z,86.08
2023-05-03T00:33:19.101Z,86.26
2023-05-03T00:35:45.574Z,86.84
2023-05-03T00:38:12.619Z,87.28
2023-05-03T00:40:39.009Z,86.89
2023-05-03T00:43:05.839Z,86.89
2023-05-03T00:45:34.043Z,88.12
2023-05-03T00:48:01.307Z,88.83
2023-05-03T00:50:28.047Z,88.59
2023-05-03T00:52:54.621Z,88.41
2023-05-03T00:55:21.479Z,89.53
2023-05-03T00:57:47.825Z,89.93
2023-05-03T01:00:14.824Z,90.70
2023-05-03T01:02:41.393Z,91.16
2023-05-03T01:05:08.023Z,90.82
2023-05-03T01:07:46.243Z,89.30
2023-05-03T01:10:33.979Z,90.71
2023-05-03T01:13:10.957Z,91.11
2023-05-03T01:16:01.236Z,90.61
2023-05-03T01:18:34.733Z,91.63
2023-05-03T01:21:02.558Z,91.70
2023-05-03T01:23:40.260Z,91.02
2023-05-03T01:26:27.296Z,91.31
2023-05-03T01:28:55.237Z,92.40
2023-05-03T01:31:52.570Z,92.70
2023-05-03T01:34:45.532Z,91.84
2023-05-03T01:37:13.539Z,92.31
2023-05-03T01:40:02.359Z,92.68
2023-05-03T01:42:29.895Z,92.11
2023-05-03T01:44:56.864Z,91.85
2023-05-03T01:47:23.326Z,92.17
2023-05-03T01:49:49.813Z,92.14
2023-05-03T01:52:16.221Z,93.33
2023-05-03T01:54:42.726Z,95.27
2023-05-03T01:57:09.176Z,94.96
2023-05-03T01:59:36.406Z,95.03
2023-05-03T02:02:02.805Z,95.36
2023-05-03T02:04:30.124Z,96.49
2023-05-03T02:06:56.518Z,96.29
2023-05-03T02:09:23.196Z,94.65
2023-05-03T02:11:49.529Z,94.94
2023-05-03T02:14:15.911Z,95.63
2023-05-03T02:16:43.069Z,96.47
2023-05-03T02:19:10.286Z,96.63
2023-05-03T02:21:38.044Z,96.14
2023-05-03T02:24:04.790Z,96.51
2023-05-03T02:26:31.200Z,96.73
2023-05-03T02:28:58.116Z,96.66
2023-05-03T02:31:25.017Z,97.59
2023-05-03T02:33:51.404Z,96.48
2023-05-03T02:36:17.783Z,96.73
2023-05-03T02:38:44.174Z,95.52
2023-05-03T02:41:10.539Z,95.80
2023-05-03T02:43:36.865Z,96.25
2023-05-03T02:46:03.553Z,97.04
2023-05-03T02:48:30.133Z,96.71
2023-05-03T02:50:56.519Z,96.87
2023-05-03T02:53:23.000Z,95.10
2023-05-03T02:55:50.178Z,96.11
2023-05-03T02:58:16.563Z,96.79
2023-05-03T03:00:42.956Z,95.93
2023-05-03T03:03:09.425Z,96.14
2023-05-03T03:05:36.029Z,96.86
2023-05-03T03:08:02.362Z,96.32
2023-05-03T03:10:28.714Z,97.79
2023-05-03T03:12:55.101Z,97.21
2023-05-03T03:15:22.102Z,98.32
2023-05-03T03:17:48.531Z,97.94
2023-05-03T03:20:15.863Z,97.49
2023-05-03T03:22:43.757Z,97.96
2023-05-03T03:25:10.234Z,98.22
2023-05-03T03:27:37.554Z,98.78
2023-05-03T03:30:08.112Z,96.72
2023-05-03T03:32:34.719Z,96.72
2023-05-03T03:35:01.447Z,98.11
2023-05-03T03:37:27.833Z,97.31
2023-05-03T03:39:54.201Z,98.08
2023-05-03T03:42:22.053Z,98.74
2023-05-03T03:44:48.418Z,99.05
2023-05-03T03:47:14.835Z,97.95
2023-05-03T03:49:41.321Z,97.69
2023-05-03T03:52:07.880Z,97.45
2023-05-03T03:54:37.144Z,98.79
2023-05-03T03:57:03.682Z,98.13
2023-05-03T03:59:30.297Z,97.46
2023-05-03T04:01:56.922Z,97.32
2023-05-03T04:04:23.359Z,98.34
2023-05-03T04:06:49.887Z,98.38
2023-05-03T04:09:17.472Z,99.21
2023-05-03T04:11:44.739Z,98.55
2023-05-03T04:14:11.118Z,98.97
2023-05-03T04:16:37.769Z,99.29
2023-05-03T04:19:04.545Z,99.25
2023-05-03T04:21:31.435Z,99.93
2023-05-03T04:23:57.969Z,99.55
2023-05-03T04:26:31.918Z,100.00
2023-05-03T04:28:59.227Z,100.00
2023-05-03T04:31:25.821Z,99.03
2023-05-03T04:33:52.389Z,99.90
2023-05-03T04:36:18.811Z,99.25
2023-05-03T04:38:45.236Z,99.66
2023-05-03T04:41:12.800Z,98.29
2023-05-03T04:43:40.596Z,98.27
2023-05-03T04:46:07.010Z,96.96
2023-05-03T04:48:34.138Z,96.72
2023-05-03T04:51:01.381Z,94.76
2023-05-03T04:53:27.722Z,93.13
2023-05-03T04:55:54.153Z,91.17
2023-05-03T04:58:20.657Z,91.55
2023-05-03T05:00:47.057Z,89.50
2023-05-03T05:03:13.538Z,88.02
2023-05-03T05:05:39.989Z,87.02
2023-05-03T05:08:06.362Z,84.00
2023-05-03T05:10:36.423Z,83.19
2023-05-03T05:13:02.891Z,83.85
2023-05-03T05:15:29.270Z,80.68
2023-05-03T05:17:56.055Z,81.34
2023-05-03T05:20:22.792Z,81.08
2023-05-03T05:22:49.289Z,79.30
2023-05-03T05:25:15.761Z,78.36
2023-05-03T05:27:42.176Z,78.41
2023-05-03T05:30:09.142Z,76.75
2023-05-03T05:32:35.942Z,75.97
2023-05-03T05:35:02.389Z,74.78
2023-05-03T05:37:28.898Z,74.55
2023-05-03T05:39:55.385Z,73.72
2023-05-03T05:42:22.594Z,71.71
2023-05-03T05:44:48.970Z,70.35
2023-05-03T05:47:15.457Z,68.16
2023-05-03T05:49:41.915Z,68.60
2023-05-03T05:52:08.274Z,69.07
2023-05-03T05:54:34.662Z,68.36
2023-05-03T05:57:01.429Z,67.18
2023-05-03T05:59:29.514Z,65.51
2023-05-03T06:01:57.238Z,64.84
2023-05-03T06:04:23.656Z,61.35
2023-05-03T06:06:50.289Z,61.96
2023-05-03T06:09:24.185Z,62.98
2023-05-03T06:11:51.997Z,62.76
2023-05-03T06:14:20.518Z,60.94
2023-05-03T06:16:47.223Z,60.25
2023-05-03T06:19:13.589Z,59.53
2023-05-03T06:21:39.959Z,57.56
2023-05-03T06:24:06.394Z,59.05
2023-05-03T06:26:32.782Z,58.19
2023-05-03T06:29:00.790Z,55.65
2023-05-03T06:31:27.246Z,57.11
2023-05-03T06:33:53.664Z,54.35
2023-05-03T06:36:20.026Z,55.42
2023-05-03T06:38:46.489Z,56.40
2023-05-03T06:41:12.852Z,54.88
2023-05-03T06:43:39.384Z,52.76
2023-05-03T06:46:05.852Z,51.02
2023-05-03T06:48:32.657Z,52.22
2023-05-03T06:50:59.063Z,53.30
2023-05-03T06:53:25.442Z,52.49
2023-05-03T06:55:52.014Z,52.49
2023-05-03T06:58:18.393Z,52.08
2023-05-03T07:00:45.545Z,49.47
2023-05-03T07:03:12.053Z,51.80
2023-05-03T07:05:38.488Z,49.14
2023-05-03T07:08:04.928Z,50.49
2023-05-03T07:10:31.566Z,48.83
2023-05-03T07:12:58.352Z,49.59
2023-05-03T07:15:24.753Z,48.26
2023-05-03T07:17:51.184Z,47.03
2023-05-03T07:20:17.653Z,48.34
2023-05-03T07:22:44.583Z,47.08
2023-05-03T07:25:12.521Z,44.44
2023-05-03T07:27:39.018Z,44.45
2023-05-03T07:30:06.605Z,46.94
2023-05-03T07:32:33.193Z,43.02
2023-05-03T07:34:59.767Z,41.70
2023-05-03T07:37:27.736Z,42.14
2023-05-03T07:39:54.132Z,42.80
2023-05-03T07:42:20.579Z,44.69
2023-05-03T07:44:46.923Z,44.51
2023-05-03T07:47:14.356Z,45.07
2023-05-03T07:49:40.832Z,45.60
2023-05-03T07:52:07.220Z,42.82
2023-05-03T07:54:33.591Z,46.99
2023-05-03T07:57:00.683Z,46.20
2023-05-03T07:59:27.260Z,45.55
2023-05-03T08:01:53.734Z,43.85
2023-05-03T08:04:20.365Z,46.12
2023-05-03T08:06:47.146Z,44.27
2023-05-03T08:09:13.982Z,46.62
2023-05-03T08:11:43.189Z,46.25
2023-05-03T08:14:10.477Z,44.03
2023-05-03T08:16:36.830Z,42.19
2023-05-03T08:19:04.897Z,41.57
2023-05-03T08:21:33.209Z,44.53
2023-05-03T08:23:59.645Z,43.14
2023-05-03T08:26:28.525Z,44.47
2023-05-03T08:28:55.188Z,45.15
2023-05-03T08:31:21.648Z,42.33
2023-05-03T08:33:48.056Z,45.71
2023-05-03T08:36:14.584Z,40.68
2023-05-03T08:38:41.189Z,43.03
2023-05-03T08:41:30.358Z,46.65
2023-05-03T08:43:58.833Z,44.70
2023-05-03T08:46:25.996Z,46.46
2023-05-03T08:48:53.756Z,46.08
2023-05-03T08:51:22.627Z,45.34
2023-05-03T08:53:49.366Z,45.53
2023-05-03T08:56:39.228Z,46.98
2023-05-03T08:59:09.206Z,45.86
2023-05-03T09:01:37.014Z,46.00
2023-05-03T09:04:04.179Z,46.08
2023-05-03T09:06:33.169Z,45.99
2023-05-03T09:09:00.600Z,46.33
2023-05-03T09:11:29.385Z,44.42
2023-05-03T09:14:28.030Z,44.96
2023-05-03T09:16:54.381Z,45.60
2023-05-03T09:19:21.610Z,44.61
2023-05-03T09:21:48.063Z,42.86
2023-05-03T09:24:21.832Z,43.21
2023-05-03T09:26:50.974Z,40.96
2023-05-03T09:29:30.950Z,41.20
2023-05-03T09:32:02.061Z,46.19
2023-05-03T09:34:28.799Z,45.39
2023-05-03T09:36:55.273Z,45.10
2023-05-03T09:39:21.755Z,46.73
2023-05-03T09:41:48.273Z,45.00
2023-05-03T09:44:14.861Z,46.57
2023-05-03T09:47:04.054Z,48.89
2023-05-03T09:49:34.244Z,49.15
2023-05-03T09:52:01.537Z,51.03
2023-05-03T09:54:31.300Z,49.32
2023-05-03T09:56:57.802Z,49.06
2023-05-03T09:59:24.379Z,50.91
2023-05-03T10:01:55.667Z,52.40
2023-05-03T10:04:25.226Z,51.12
2023-05-03T10:06:57.175Z,50.13
2023-05-03T10:09:40.167Z,54.20
2023-05-03T10:12:12.368Z,50.90
2023-05-03T10:14:49.825Z,50.96
2023-05-03T10:17:46.965Z,52.21
2023-05-03T10:20:29.481Z,49.13
2023-05-03T10:23:05.142Z,49.99
2023-05-03T10:25:35.752Z,48.01
2023-05-03T10:28:03.688Z,52.13
2023-05-03T10:30:42.793Z,51.84
2023-05-03T10:33:12.143Z,51.64
2023-05-03T10:36:06.212Z,53.33
2023-05-03T10:38:32.624Z,51.68
2023-05-03T10:41:00.646Z,51.88
2023-05-03T10:43:30.054Z,52.94
2023-05-03T10:46:01.150Z,50.31
2023-05-03T10:48:28.707Z,52.69
2023-05-03T10:50:56.252Z,49.23
2023-05-03T10:53:31.911Z,51.21
2023-05-03T10:56:11.061Z,48.65
2023-05-03T10:58:42.050Z,51.97
2023-05-03T11:01:10.985Z,51.86
2023-05-03T11:03:46.444Z,50.63
2023-05-03T11:06:34.395Z,50.74
2023-05-03T11:09:01.924Z,53.50
2023-05-03T11:11:28.270Z,51.63
2023-05-03T11:13:54.825Z,50.66
2023-05-03T11:16:21.421Z,49.92
2023-05-03T11:18:48.725Z,49.66
2023-05-03T11:21:16.329Z,49.77
2023-05-03T11:23:43.779Z,51.76
2023-05-03T11:26:10.847Z,50.75
2023-05-03T11:28:41.911Z,50.25
2023-05-03T11:31:09.674Z,50.61
2023-05-03T11:33:37.822Z,49.98
2023-05-03T11:36:06.356Z,48.25
2023-05-03T11:38:34.096Z,50.26
2023-05-03T11:41:01.538Z,49.30
2023-05-03T11:43:28.851Z,49.51
2023-05-03T11:45:59.269Z,49.67
2023-05-03T11:48:32.144Z,50.54
2023-05-03T11:50:58.679Z,49.96
2023-05-03T11:53:26.301Z,49.19
2023-05-03T11:55:54.112Z,49.43
2023-05-03T11:58:24.777Z,49.88
2023-05-03T12:00:55.401Z,50.08
2023-05-03T12:03:31.113Z,48.69
2023-05-03T12:05:59.754Z,50.68
2023-05-03T12:08:31.472Z,50.39
2023-05-03T12:11:02.817Z,49.19
2023-05-03T12:13:39.221Z,48.24
2023-05-03T12:16:13.369Z,46.21
2023-05-03T12:18:51.364Z,47.85
2023-05-03T12:23:55.958Z,45.47
2023-05-03T12:26:23.160Z,46.42
2023-05-03T12:28:49.726Z,48.61
2023-05-03T12:31:18.246Z,46.30
2023-05-03T12:34:00.495Z,45.52
2023-05-03T12:36:37.398Z,44.08
2023-05-03T12:39:08.992Z,45.58
2023-05-03T12:44:09.806Z,46.25
2023-05-03T12:46:38.241Z,46.94
2023-05-03T12:49:07.613Z,45.47
2023-05-03T12:51:34.972Z,48.13
2023-05-03T12:54:02.083Z,47.42
2023-05-03T12:56:32.271Z,45.44
2023-05-03T12:59:23.163Z,46.80
2023-05-03T13:02:57.560Z,45.52
2023-05-03T13:07:03.017Z,47.32
2023-05-03T13:09:38.704Z,45.51
2023-05-03T13:12:20.306Z,45.42
2023-05-03T13:14:47.884Z,46.86
2023-05-03T13:17:14.781Z,46.39
2023-05-03T13:19:43.349Z,46.27
2023-05-03T13:22:10.082Z,47.67
2023-05-03T13:24:36.750Z,45.68
2023-05-03T13:27:04.594Z,45.38
2023-05-03T13:29:31.370Z,46.28
2023-05-03T13:31:57.747Z,46.20
2023-05-03T13:34:24.220Z,43.64
2023-05-03T13:36:50.640Z,44.91
2023-05-03T13:39:17.174Z,46.31
2023-05-03T13:41:43.578Z,46.56
2023-05-03T13:44:10.074Z,45.95
2023-05-03T13:46:40.823Z,45.05
2023-05-03T13:49:08.176Z,45.01
2023-05-03T13:51:35.268Z,43.88
2023-05-03T13:54:03.617Z,44.31
2023-05-03T13:56:30.055Z,46.63
2023-05-03T13:58:57.146Z,44.98
2023-05-03T14:01:24.817Z,44.66
2023-05-03T14:03:52.086Z,45.29
2023-05-03T14:06:20.070Z,44.64
2023-05-03T14:08:50.277Z,46.04
2023-05-03T14:11:18.390Z,42.75
2023-05-03T14:13:56.188Z,44.87
2023-05-03T14:18:54.011Z,42.70
2023-05-03T14:21:20.435Z,43.00
2023-05-03T14:23:48.221Z,43.58
2023-05-03T14:26:14.647Z,42.52
2023-05-03T14:28:41.003Z,44.47
2023-05-03T14:31:07.945Z,43.33
2023-05-03T14:33:34.494Z,42.29
2023-05-03T14:36:00.928Z,43.48
2023-05-03T14:38:27.457Z,45.50
2023-05-03T14:40:53.888Z,40.33
2023-05-03T14:43:21.173Z,42.03
2023-05-03T14:45:51.045Z,40.66
2023-05-03T14:48:17.634Z,41.16
2023-05-03T14:50:50.704Z,41.62
2023-05-03T14:53:17.370Z,42.67
2023-05-03T14:55:43.786Z,40.64
2023-05-03T14:58:10.277Z,41.49
2023-05-03T15:00:40.861Z,41.10
2023-05-03T15:03:11.384Z,40.55
2023-05-03T15:05:48.654Z,39.04
2023-05-03T15:08:16.719Z,39.93
2023-05-03T15:10:47.529Z,40.06
2023-05-03T15:13:15.263Z,40.92
2023-05-03T15:15:45.816Z,40.42
2023-05-03T15:18:14.288Z,40.21
2023-05-03T15:20:40.894Z,38.30
2023-05-03T15:23:07.258Z,38.78
2023-05-03T15:25:33.721Z,40.33
2023-05-03T15:28:03.622Z,39.18
2023-05-03T15:30:31.356Z,40.29
2023-05-03T15:32:57.893Z,39.49
2023-05-03T15:35:24.354Z,39.25
2023-05-03T15:37:50.758Z,40.45
2023-05-03T15:40:18.586Z,39.83
2023-05-03T15:42:45.060Z,39.76
2023-05-03T15:45:12.939Z,39.42
2023-05-03T15:47:39.358Z,41.23
2023-05-03T15:50:06.756Z,40.44
2023-05-03T15:52:34.696Z,39.67
2023-05-03T15:55:01.279Z,37.81
2023-05-03T15:57:28.076Z,37.82
2023-05-03T15:59:55.260Z,37.73
2023-05-03T16:02:21.953Z,37.70
2023-05-03T16:04:50.319Z,37.56
2023-05-03T16:07:17.267Z,37.56
2023-05-03T16:09:43.669Z,36.09
2023-05-03T16:12:10.013Z,36.05
2023-05-03T16:14:36.393Z,36.23
2023-05-03T16:17:03.132Z,37.84
2023-05-03T16:19:29.690Z,37.61
2023-05-03T16:21:56.715Z,37.39
2023-05-03T16:24:23.099Z,37.84
2023-05-03T16:26:50.888Z,36.90
2023-05-03T16:29:17.756Z,37.97
2023-05-03T16:31:46.300Z,37.25
2023-05-03T16:34:13.048Z,37.29
2023-05-03T16:36:45.279Z,38.66
2023-05-03T16:39:12.542Z,38.32
2023-05-03T16:41:39.660Z,39.73
2023-05-03T16:44:07.164Z,40.19
2023-05-03T16:46:35.965Z,39.81
2023-05-03T16:49:03.026Z,39.63
2023-05-03T16:51:29.471Z,39.58
2023-05-03T16:53:56.070Z,38.22
2023-05-03T16:56:24.846Z,39.67
2023-05-03T16:58:51.672Z,40.04
2023-05-03T17:01:18.673Z,39.60
2023-05-03T17:03:45.286Z,40.08
2023-05-03T17:06:12.644Z,39.96
2023-05-03T17:08:39.619Z,40.39
2023-05-03T17:11:11.577Z,40.44
2023-05-03T17:13:37.958Z,40.24
2023-05-03T17:16:09.247Z,39.88
2023-05-03T17:18:37.212Z,39.96
2023-05-03T17:21:04.786Z,40.81
2023-05-03T17:23:39.344Z,40.22
2023-05-03T17:26:08.686Z,40.32
2023-05-03T17:28:35.583Z,40.93
2023-05-03T17:31:02.678Z,41.57
2023-05-03T17:33:29.434Z,42.26
2023-05-03T17:35:55.941Z,42.25
2023-05-03T17:38:23.025Z,42.97
2023-05-03T17:40:49.602Z,41.74
2023-05-03T17:43:18.631Z,42.43
2023-05-03T17:45:47.356Z,42.88
2023-05-03T17:48:14.293Z,42.56
2023-05-03T17:50:41.779Z,42.77
2023-05-03T17:53:09.075Z,43.42
2023-05-03T17:55:37.941Z,43.89
2023-05-03T17:58:05.990Z,44.03
2023-05-03T18:00:32.758Z,44.39
2023-05-03T18:02:59.272Z,45.14
2023-05-03T18:05:26.616Z,45.03
2023-05-03T18:07:53.261Z,45.43
2023-05-03T18:10:19.752Z,46.31
2023-05-03T18:12:46.149Z,48.81
2023-05-03T18:15:14.968Z,50.01
2023-05-03T18:17:41.376Z,50.71
2023-05-03T18:20:09.562Z,51.63
2023-05-03T18:22:37.317Z,54.32
2023-05-03T18:25:07.126Z,54.81
2023-05-03T18:27:36.562Z,56.01
2023-05-03T18:30:06.290Z,56.82
2023-05-03T18:32:33.175Z,57.52
2023-05-03T18:35:00.697Z,58.36
2023-05-03T18:37:27.528Z,59.47
2023-05-03T18:39:54.072Z,59.91
2023-05-03T18:42:21.244Z,60.59
2023-05-03T18:44:47.995Z,60.91
2023-05-03T18:47:16.116Z,61.31
2023-05-03T18:49:46.869Z,61.94
2023-05-03T18:52:13.255Z,62.91
2023-05-03T18:54:39.604Z,63.30
2023-05-03T18:57:06.207Z,63.53
2023-05-03T18:59:32.634Z,64.17
2023-05-03T19:01:59.027Z,65.12
2023-05-03T19:04:25.747Z,65.57
2023-05-03T19:06:52.143Z,65.42
2023-05-03T19:09:18.658Z,65.70
2023-05-03T19:11:45.374Z,66.18
2023-05-03T19:14:11.833Z,67.07
2023-05-03T19:16:38.643Z,67.09
2023-05-03T19:19:05.124Z,67.54
2023-05-03T19:21:31.639Z,67.73
2023-05-03T19:23:57.976Z,68.01
2023-05-03T19:26:24.347Z,68.09
2023-05-03T19:28:50.677Z,67.32
2023-05-03T19:31:17.777Z,68.16
2023-05-03T19:33:44.223Z,69.07
2023-05-03T19:36:14.656Z,69.91
2023-05-03T19:38:41.078Z,68.80
2023-05-03T19:41:12.418Z,69.24
2023-05-03T19:43:39.997Z,69.83
2023-05-03T19:46:07.128Z,69.96
2023-05-03T19:48:34.140Z,70.25
2023-05-03T19:51:00.774Z,70.53
2023-05-03T19:53:27.882Z,70.10
2023-05-03T19:55:58.534Z,70.43
2023-05-03T19:58:26.112Z,70.86
2023-05-03T20:00:52.970Z,71.03
2023-05-03T20:03:20.672Z,71.97
2023-05-03T20:05:47.140Z,71.80
2023-05-03T20:08:13.697Z,71.96
2023-05-03T20:10:40.413Z,72.59
2023-05-03T20:13:07.724Z,72.78
2023-05-03T20:15:35.623Z,72.63
2023-05-03T20:18:03.151Z,72.82
2023-05-03T20:20:30.703Z,72.00
2023-05-03T20:22:57.039Z,72.35
2023-05-03T20:25:24.854Z,72.80
2023-05-03T20:27:52.204Z,73.32
2023-05-03T20:30:18.811Z,72.75
2023-05-03T20:32:45.263Z,72.34
2023-05-03T20:35:12.157Z,72.42
2023-05-03T20:37:38.850Z,71.58
2023-05-03T20:40:06.601Z,72.50
2023-05-03T20:42:33.097Z,72.73
2023-05-03T20:44:59.451Z,72.88
2023-05-03T20:47:26.321Z,71.97
2023-05-03T20:49:52.804Z,71.87
2023-05-03T20:52:19.179Z,73.14
2023-05-03T20:54:46.488Z,72.55
2023-05-03T20:57:15.769Z,74.05
2023-05-03T20:59:46.135Z,72.73
2023-05-03T21:02:12.563Z,73.50
2023-05-03T21:04:39.017Z,72.97
2023-05-03T21:07:05.497Z,73.87
2023-05-03T21:09:33.174Z,74.27
2023-05-03T21:11:59.657Z,73.57
2023-05-03T21:14:26.277Z,73.00
2023-05-03T21:16:52.771Z,72.95
2023-05-03T21:19:19.221Z,74.24
2023-05-03T21:21:45.666Z,74.23
2023-05-03T21:24:12.131Z,73.72
2023-05-03T21:26:39.074Z,73.74
2023-05-03T21:29:06.067Z,75.25
2023-05-03T21:31:32.493Z,74.64
2023-05-03T21:33:58.947Z,73.38
2023-05-03T21:36:25.519Z,74.44
2023-05-03T21:38:52.993Z,74.17
2023-05-03T21:41:19.598Z,74.27
2023-05-03T21:43:46.663Z,74.13
2023-05-03T21:46:13.185Z,73.98
2023-05-03T21:48:40.257Z,73.88
2023-05-03T21:51:06.706Z,75.16
2023-05-03T21:53:33.337Z,74.23
2023-05-03T21:55:59.674Z,74.97
2023-05-03T21:58:26.091Z,75.02
2023-05-03T22:00:52.717Z,75.71
2023-05-03T22:03:19.376Z,74.50
2023-05-03T22:05:48.603Z,75.77
2023-05-03T22:08:17.976Z,75.94
2023-05-03T22:10:47.724Z,75.99
2023-05-03T22:13:14.277Z,76.47
2023-05-03T22:15:40.757Z,75.47
2023-05-03T22:18:07.347Z,75.98
2023-05-03T22:20:33.876Z,76.27
2023-05-03T22:23:00.282Z,76.78
2023-05-03T22:25:28.922Z,75.50
2023-05-03T22:27:56.462Z,75.99
2023-05-03T22:30:23.030Z,77.47
2023-05-03T22:32:49.541Z,76.88
2023-05-03T22:35:16.160Z,76.83
2023-05-03T22:37:42.594Z,77.50
2023-05-03T22:40:09.443Z,77.97
2023-05-03T22:42:36.047Z,78.57
2023-05-03T22:45:02.448Z,77.21
2023-05-03T22:47:28.877Z,78.45
2023-05-03T22:49:55.812Z,79.23
2023-05-03T22:52:22.227Z,79.01
2023-05-03T22:54:48.865Z,78.90
2023-05-03T22:57:15.214Z,79.15
2023-05-03T22:59:44.944Z,79.93
2023-05-03T23:02:11.672Z,79.54
2023-05-03T23:04:38.043Z,78.77
2023-05-03T23:07:04.482Z,79.23
2023-05-03T23:09:30.874Z,80.35
2023-05-03T23:11:57.377Z,79.58
2023-05-03T23:14:23.729Z,78.82
2023-05-03T23:16:50.201Z,79.42
2023-05-03T23:19:16.657Z,79.00
2023-05-03T23:21:43.018Z,79.50
2023-05-03T23:24:09.510Z,78.45
2023-05-03T23:30:23.049Z,78.84
2023-05-03T23:32:49.939Z,77.92
2023-05-03T23:35:16.915Z,77.28
2023-05-03T23:37:43.294Z,77.26
2023-05-03T23:40:09.894Z,77.18
2023-05-03T23:42:36.516Z,77.98
2023-05-03T23:45:03.241Z,77.46
2023-05-03T23:47:29.647Z,78.18
2023-05-03T23:49:56.034Z,75.62
2023-05-03T23:52:22.424Z,75.22
2023-05-03T23:54:48.816Z,74.61
2023-05-03T23:57:15.715Z,75.36
2023-05-03T23:59:42.197Z,74.54
